createdAt,value
2023-07-07T00:01:27.143Z,99.90
2023-07-07T00:06:30.921Z,99.90
2023-07-07T00:11:35.461Z,99.90
2023-07-07T00:16:38.930Z,99.90
2023-07-07T00:21:43.846Z,99.90
2023-07-07T00:26:50.883Z,99.90
2023-07-07T00:31:55.712Z,99.90
2023-07-07T00:36:59.241Z,99.90
2023-07-07T00:42:03.862Z,99.90
2023-07-07T00:47:07.670Z,99.90
2023-07-07T00:52:15.696Z,99.90
2023-07-07T00:57:20.599Z,99.90
2023-07-07T01:02:27.217Z,99.90
2023-07-07T01:07:34.768Z,99.90
2023-07-07T01:12:39.495Z,99.90
2023-07-07T01:17:52.533Z,99.90
2023-07-07T01:23:23.396Z,99.90
2023-07-07T01:28:38.680Z,99.90
2023-07-07T01:33:52.552Z,99.90
2023-07-07T01:38:55.918Z,99.90
2023-07-07T01:44:03.354Z,99.90
2023-07-07T01:49:10.450Z,99.90
2023-07-07T01:54:14.236Z,99.90
2023-07-07T01:59:17.953Z,99.90
2023-07-07T02:04:23.020Z,99.90
2023-07-07T02:09:26.713Z,99.90
2023-07-07T02:21:23.262Z,99.90
2023-07-07T02:26:51.526Z,99.90
2023-07-07T02:32:00.489Z,99.90
2023-07-07T02:37:14.646Z,99.90
2023-07-07T02:42:23.310Z,99.90
2023-07-07T02:47:27.119Z,99.90
2023-07-07T02:52:35.669Z,99.90
2023-07-07T02:57:39.083Z,99.90
2023-07-07T03:02:50.354Z,99.90
2023-07-07T03:07:57.489Z,99.90
2023-07-07T03:13:02.212Z,99.90
2023-07-07T03:18:12.066Z,99.90
2023-07-07T03:23:26.356Z,99.90
2023-07-07T03:28:36.867Z,99.90
2023-07-07T03:33:49.228Z,99.90
2023-07-07T03:39:01.657Z,99.90
2023-07-07T03:44:09.036Z,99.90
2023-07-07T03:49:21.789Z,99.90
2023-07-07T03:54:47.206Z,99.90
2023-07-07T03:59:56.039Z,99.90
2023-07-07T04:05:00.501Z,99.90
2023-07-07T04:10:07.084Z,99.90
2023-07-07T04:15:14.149Z,99.90
2023-07-07T04:20:19.061Z,99.90
2023-07-07T04:25:25.626Z,99.90
2023-07-07T04:30:32.171Z,99.90
2023-07-07T04:35:42.602Z,99.90
2023-07-07T04:40:58.853Z,99.90
2023-07-07T04:46:11.672Z,99.90
2023-07-07T04:51:15.309Z,99.90
2023-07-07T04:56:24.639Z,99.90
2023-07-07T05:01:42.856Z,99.90
2023-07-07T05:06:53.113Z,99.90
2023-07-07T05:12:13.121Z,99.90
2023-07-07T05:17:24.270Z,99.90
2023-07-07T05:22:33.738Z,99.90
2023-07-07T05:27:45.600Z,99.90
2023-07-07T05:33:16.822Z,99.90
2023-07-07T05:38:22.993Z,99.90
2023-07-07T05:44:10.181Z,99.90
2023-07-07T05:49:29.234Z,99.90
2023-07-07T05:54:44.661Z,99.90
2023-07-07T06:00:27.073Z,99.90
2023-07-07T06:05:43.018Z,99.90
2023-07-07T06:10:52.578Z,99.90
2023-07-07T06:16:03.597Z,99.90
2023-07-07T06:21:11.440Z,99.90
2023-07-07T06:26:21.443Z,99.90
2023-07-07T06:31:28.700Z,99.90
2023-07-07T06:36:37.060Z,99.90
2023-07-07T06:41:43.669Z,99.90
2023-07-07T06:46:49.372Z,99.80
2023-07-07T06:51:52.618Z,97.80
2023-07-07T06:57:01.553Z,97.80
2023-07-07T07:02:09.529Z,94.80
2023-07-07T07:07:13.204Z,92.70
2023-07-07T07:12:18.892Z,93.10
2023-07-07T07:17:26.132Z,91.40
2023-07-07T07:22:32.542Z,88.80
2023-07-07T07:27:36.007Z,87.60
2023-07-07T07:32:41.236Z,86.90
2023-07-07T07:37:45.002Z,83.50
2023-07-07T07:42:49.186Z,80.50
2023-07-07T07:47:54.408Z,80.40
2023-07-07T07:52:57.752Z,79.40
2023-07-07T07:58:03.672Z,77.90
2023-07-07T08:03:08.893Z,77.20
2023-07-07T08:08:17.345Z,76.50
2023-07-07T08:13:38.965Z,71.30
2023-07-07T08:18:45.417Z,73.00
2023-07-07T08:23:49.220Z,73.10
2023-07-07T08:28:54.649Z,68.80
2023-07-07T08:34:02.415Z,67.70
2023-07-07T08:39:13.466Z,69.60
2023-07-07T08:44:22.607Z,66.40
2023-07-07T08:49:31.470Z,66.00
2023-07-07T08:54:41.497Z,64.30
2023-07-07T08:59:58.487Z,63.80
2023-07-07T09:05:07.838Z,62.70
2023-07-07T09:29:30.087Z,57.50
2023-07-07T09:34:37.158Z,53.10
2023-07-07T09:39:51.997Z,53.90
2023-07-07T09:45:07.950Z,54.00
2023-07-07T09:50:17.436Z,50.20
2023-07-07T09:55:28.392Z,51.10
2023-07-07T10:05:53.292Z,47.50
2023-07-07T10:11:23.240Z,45.50
2023-07-07T10:16:40.385Z,45.00
2023-07-07T10:21:45.822Z,45.50
2023-07-07T10:26:54.924Z,47.20
2023-07-07T10:32:01.027Z,45.10
2023-07-07T10:37:19.715Z,44.70
2023-07-07T10:42:25.021Z,43.60
2023-07-07T10:47:31.679Z,42.70
2023-07-07T10:53:23.164Z,44.60
2023-07-07T10:58:18.359Z,47.10
2023-07-07T11:03:42.890Z,44.40
2023-07-07T11:08:51.792Z,41.80
2023-07-07T11:14:14.986Z,41.00
2023-07-07T11:19:32.336Z,43.70
2023-07-07T11:29:56.301Z,43.70
2023-07-07T11:35:18.871Z,42.40
2023-07-07T11:40:39.245Z,41.60
2023-07-07T11:46:03.102Z,40.40
2023-07-07T11:51:23.699Z,42.30
2023-07-07T11:56:55.669Z,41.90
2023-07-07T12:01:59.805Z,40.10
2023-07-07T12:07:08.492Z,40.50
2023-07-07T12:12:14.601Z,41.10
2023-07-07T12:17:19.359Z,39.20
2023-07-07T12:22:28.596Z,41.80
2023-07-07T12:27:35.551Z,40.70
2023-07-07T12:32:41.804Z,40.20
2023-07-07T12:37:46.659Z,40.60
2023-07-07T12:43:08.475Z,40.30
2023-07-07T12:48:19.949Z,40.10
2023-07-07T12:53:27.626Z,41.10
2023-07-07T12:58:47.243Z,43.20
2023-07-07T13:04:02.989Z,40.30
2023-07-07T13:09:25.137Z,39.30
2023-07-07T13:14:43.518Z,38.80
2023-07-07T13:19:54.807Z,39.10
2023-07-07T13:25:00.374Z,42.60
2023-07-07T13:30:12.489Z,41.10
2023-07-07T13:35:18.369Z,39.90
2023-07-07T13:40:24.438Z,41.10
2023-07-07T13:45:28.148Z,39.00
2023-07-07T13:50:32.137Z,39.40
2023-07-07T13:55:45.963Z,37.90
2023-07-07T14:00:58.669Z,39.30
2023-07-07T14:06:16.683Z,37.50
2023-07-07T14:11:26.406Z,39.60
2023-07-07T14:16:35.854Z,37.40
2023-07-07T14:21:41.900Z,38.70
2023-07-07T14:26:47.001Z,38.10
2023-07-07T14:32:01.565Z,40.00
2023-07-07T14:37:05.767Z,37.80
2023-07-07T14:42:20.668Z,40.50
2023-07-07T14:47:26.102Z,39.30
2023-07-07T14:52:33.115Z,36.30
2023-07-07T14:57:41.813Z,41.30
2023-07-07T15:02:50.800Z,46.00
2023-07-07T15:08:06.246Z,42.90
2023-07-07T15:13:19.867Z,41.40
2023-07-07T15:18:25.026Z,46.60
2023-07-07T15:23:33.237Z,41.80
2023-07-07T15:28:50.201Z,41.00
2023-07-07T15:33:57.437Z,38.80
2023-07-07T15:39:05.846Z,40.00
2023-07-07T15:44:14.168Z,38.90
2023-07-07T15:49:23.332Z,39.90
2023-07-07T15:54:33.821Z,36.50
2023-07-07T15:59:40.225Z,38.40
2023-07-07T16:04:44.299Z,38.10
2023-07-07T16:09:48.318Z,37.20
2023-07-07T16:14:55.580Z,38.90
2023-07-07T16:20:02.699Z,46.10
2023-07-07T16:25:07.417Z,46.60
2023-07-07T16:30:17.121Z,45.00
2023-07-07T16:35:21.563Z,42.10
2023-07-07T16:40:26.087Z,41.40
2023-07-07T16:45:31.751Z,41.70
2023-07-07T16:50:35.557Z,43.40
2023-07-07T16:55:39.549Z,40.00
2023-07-07T17:00:48.408Z,40.10
2023-07-07T17:05:52.350Z,39.90
2023-07-07T17:10:58.102Z,43.20
2023-07-07T17:16:07.929Z,41.70
2023-07-07T17:21:13.792Z,41.10
2023-07-07T17:26:19.873Z,42.00
2023-07-07T17:31:28.696Z,41.70
2023-07-07T17:36:34.077Z,44.10
2023-07-07T17:41:44.068Z,44.30
2023-07-07T17:46:59.757Z,43.90
2023-07-07T17:52:03.977Z,43.50
2023-07-07T17:57:10.612Z,45.50
2023-07-07T18:02:17.204Z,45.00
2023-07-07T18:07:22.273Z,45.70
2023-07-07T18:12:27.993Z,44.90
2023-07-07T18:17:39.001Z,45.00
2023-07-07T18:22:47.771Z,50.90
2023-07-07T18:27:54.516Z,56.00
2023-07-07T18:32:59.685Z,54.80
2023-07-07T18:38:04.772Z,54.30
2023-07-07T18:43:08.570Z,56.80
2023-07-07T18:48:16.358Z,58.00
2023-07-07T18:53:21.961Z,57.60
2023-07-07T18:58:26.553Z,59.70
2023-07-07T19:03:33.222Z,60.00
2023-07-07T19:08:36.770Z,62.20
2023-07-07T19:13:43.348Z,74.30
2023-07-07T19:18:50.424Z,61.80
2023-07-07T19:24:01.499Z,85.50
2023-07-07T19:29:06.048Z,63.60
2023-07-07T19:34:13.886Z,64.60
2023-07-07T19:39:19.345Z,65.20
2023-07-07T19:44:23.571Z,65.90
2023-07-07T19:49:31.093Z,67.00
2023-07-07T19:54:39.457Z,68.30
2023-07-07T20:04:55.795Z,90.30
2023-07-07T20:09:59.969Z,89.50
2023-07-07T20:20:24.131Z,73.60
2023-07-07T20:25:27.893Z,71.30
2023-07-07T20:30:32.433Z,73.10
2023-07-07T20:35:37.801Z,72.10
2023-07-07T20:40:43.286Z,72.20
2023-07-07T20:45:47.824Z,72.20
2023-07-07T20:50:55.585Z,71.50
2023-07-07T20:55:59.938Z,72.00
2023-07-07T21:01:03.606Z,72.30
2023-07-07T21:06:12.573Z,73.70
2023-07-07T21:11:17.553Z,75.30
2023-07-07T21:16:23.419Z,76.20
2023-07-07T21:21:29.564Z,75.50
2023-07-07T21:26:33.612Z,75.20
2023-07-07T21:31:40.524Z,75.00
2023-07-07T21:36:47.712Z,77.10
2023-07-07T21:42:06.744Z,77.70
2023-07-07T21:47:15.941Z,77.70
2023-07-07T21:52:21.357Z,78.60
2023-07-07T21:57:41.887Z,79.30
2023-07-07T22:02:46.368Z,79.80
2023-07-07T22:07:51.990Z,79.90
2023-07-07T22:12:57.593Z,80.40
2023-07-07T22:18:02.433Z,80.80
2023-07-07T22:23:10.322Z,81.10
2023-07-07T22:28:20.502Z,81.70
2023-07-07T22:33:24.725Z,81.50
2023-07-07T22:38:31.832Z,82.30
2023-07-07T22:43:36.280Z,83.30
2023-07-07T22:48:40.379Z,84.10
2023-07-07T22:53:45.578Z,85.10
2023-07-07T22:58:49.845Z,87.00
2023-07-07T23:03:55.903Z,87.60
2023-07-07T23:09:03.526Z,87.60
2023-07-07T23:14:07.122Z,86.90
2023-07-07T23:19:12.232Z,86.30
2023-07-07T23:24:18.831Z,86.20
2023-07-07T23:29:23.170Z,86.90
2023-07-07T23:34:26.971Z,87.60
2023-07-07T23:39:32.507Z,89.00
2023-07-07T23:44:36.973Z,90.10
2023-07-07T23:49:40.709Z,90.80
2023-07-07T23:54:46.579Z,91.40
2023-07-07T23:59:50.787Z,91.70
